AirNav   Phillips 66 Aviation Fuel
 
 1637 users online  

8G8 Koons Airport
Salem, Ohio, USA

GOING TO SALEM?


FAA INFORMATION EFFECTIVE 04 JANUARY 2018

Location

FAA Identifier: 8G8
Lat/Long: 40-53-00.2120N / 080-52-59.3050W
40-53.003533N / 080-52.988417W
40.8833922 / -80.8831403
(estimated)
Elevation: 1327 ft. / 404 m (estimated)
Variation: 07W (1985)
From city: 2 miles SW of SALEM, OH
Time zone: UTC -5 (UTC -4 during Daylight Saving Time)
Zip code: 44460

Airport Operations

Airport use: Open to the public
Control tower: no
ARTCC: CLEVELAND CENTER
FSS: CLEVELAND FLIGHT SERVICE STATION
NOTAMs facility: CLE (NOTAM-D service available)
Attendance: DAYLIGHT HOURS
Wind indicator: yes
Segmented circle: no

Airport Communications

CTAF: 122.9

Nearby radio navigation aids

VOR radial/distance  VOR name  Freq  Var
ACOr137/19.7AKRON VOR/DME114.4004W
BSVr075/26.4BRIGGS VOR/DME112.4004W
YNGr204/28.5YOUNGSTOWN VORTAC109.0005W
EWCr285/30.7ELLWOOD CITY VOR/DME115.8008W
MMJr315/39.3MONTOUR VORTAC112.0008W

 
NDB name  Hdg/Dist  Freq  Var  ID
CASTLE257/22.827209WUCP ..- -.-. .--.
CADIZ016/39.223907WCFX -.-. ..-. -..-

Airport Services

Parking: tiedowns
Airframe service: NONE
Powerplant service: NONE

Runway Information

Runway 9/27

Dimensions: 1850 x 100 ft. / 564 x 30 m
Surface: turf, in good condition
RUNWAY 9  RUNWAY 27
Latitude: 40-53.008667N40-52.998167N
Longitude: 080-53.188833W080-52.787667W
Elevation: 1327.0 ft.1327.0 ft.
Gradient: 1.4%1.4%
Traffic pattern: leftright
Runway end identifier lights: nono
Obstructions: 8 ft. crops, 125 ft. both sides of centerline
RWY 09: OBST CLNS SLOPE 7:1, DUE TO 55-FT TREE, 385-FT FM RWY 09, 55-FT L
70 ft. trees, 50 ft. from runway, 75 ft. left of centerline
RWY 27: OBST CLNS SLOPE 1:1, DUE TO 75-FT TREES 135-FT FM, RWY 27, 60-FT L

Airport Ownership and Management from official FAA records

Ownership: Privately-owned
Owner: DAVID & HARRY KOONS
1760 ST RTE 9
SALEM, OH 44460
Phone 330-337-7303
Manager: DAVID & HARRY KOONS
1760 ST RTE 9
SALEM, OH 44460
Phone 330-337-7303
ADNL CTC: 330-337-1780

Airport Operational Statistics

Aircraft based on the field: 9
Single engine airplanes: 7
Ultralights: 2
    
Aircraft operations: avg 49/week *
98% local general aviation
2% transient general aviation
<1% military
* for 12-month period ending 26 August 2017

Additional Remarks

FOR IFR CLEARANCE CTC CLEVELAND ARTCC (ZOB) 120.775/298.95 OR CALL ZOB 440-774-0489.
DEER, BIRDS & OTHER WILDLIFE ON & INVOF AIRPORT

Instrument Procedures

There are no published instrument procedures at 8G8.

Some nearby airports with instrument procedures:

38D - Salem Airpark Inc (4 nm N)
3G6 - Tri-City Airport (5 nm W)
4G4 - Youngstown Elser Metro Airport (10 nm NE)
02G - Columbiana County Airport (17 nm SE)
KTSO - Carroll County-Tolson Airport (21 nm SW)
 
Loc | Ops | Rwys | IFR | FBO | Links
Com | Nav | Svcs | Stats | Notes


 
Area around 8G8 (Koons Airport)
 
Road maps at: MapQuest Bing Google
 
Aerial photo
WARNING: Photo may not be current or correct
Aerial photo of 8G8 (Koons Airport)
Photo by Rick Hunt
Photo taken 22-Mar-2015
looking south.

Do you have a better or more recent aerial photo of Koons Airport that you would like to share? If so, please send us your photo.

 
Sectional chart

 
Airport distance calculator
Flying to Koons Airport? Find the distance to fly.

From to 8G8

Sunrise and sunset
Times for 22-Jan-2018
 Local
(UTC-5)
 Zulu
(UTC)
Morning civil twilight07:1312:13
Sunrise07:4312:43
Sunset17:2722:27
Evening civil twilight17:5722:57

Current date and time
Zulu (UTC)  22-Jan-2018 16:21:41
Local (UTC-5)  22-Jan-2018 11:21:41
 
METAR
KUCP 
23nm E 
221556Z AUTO 15006KT 10SM OVC065 09/09 A2999 RMK AO2 SLP173 T00940089
KBVI 
23nm E 
221547Z 13004KT 10SM OVC065 08/09 A2999
KYNG 
24nm NE 
221551Z 16010KT 10SM BKN060 BKN075 OVC100 11/08 A2996 RMK AO2 SLP149 T01060078
KPOV 
26nm NW 
221555Z AUTO 16004KT 10SM SCT065 OVC120 11/08 A2995 RMK AO2 T01050075
KCAK 
26nm W 
221551Z 17010KT 10SM SCT070 OVC120 11/07 A2994 RMK AO2 SLP143 T01110072
KAKR 
28nm W 
221554Z AUTO 18009KT 10SM BKN085 OVC110 13/08 A2993 RMK AO2 SLP137 T01280078 $
KPHD 
35nm SW 
221553Z AUTO VRB03KT 10SM BKN090 11/08 A2996 RMK AO2 SLP149 T01110078
KPIT 
36nm SE 
221551Z 15005KT 10SM FEW060 SCT110 OVC220 12/09 A2999 RMK AO2 SLP165 T01220094
KBTP 
43nm E 
221556Z AUTO 16006KT 10SM OVC060 11/09 A3000 RMK AO2 SLP170 T01060089
KHLG 
44nm S 
221553Z 17010KT 10SM FEW110 14/08 A2997 RMK AO2 SLP152 T01440078
TAF
KBVI 
23nm E 
221120Z 2212/2312 16005KT P6SM VCSH BKN035 FM221600 17005KT P6SM BKN080 FM230200 16008KT P6SM -SHRA OVC040 FM230500 20008KT P6SM -SHRA OVC025 AMD NOT SKED
KYNG 
24nm NE 
221135Z 2212/2312 15008KT 5SM -SHRA BKN025 OVC040 TEMPO 2212/2214 6SM -SHRA SCT025 OVC040 FM221600 17012KT P6SM VCSH OVC040 FM230200 18012KT 3SM -SHRA OVC012
KCAK 
26nm W 
221135Z 2212/2312 16007KT 6SM BR OVC040 TEMPO 2212/2214 5SM -SHRA BR OVC020 FM221500 19014G22KT P6SM BKN040 OVC080 FM230000 18012KT 3SM -SHRA OVC012
NOTAMs
Click for the latest NOTAMs
NOTAMs are issued by the DoD/FAA and will open in a separate window not controlled by AirNav.

 

 
 

Would you like to see your business listed on this page?

 If your business provides an interesting product or service to pilots, flight crews, aircraft, or users of the Koons Airport, you should consider listing it here.  To start the listing process, click on the button below
 
Add a business
 

Other Pages about Koons Airport

Update a link
 
Copyright © AirNav, LLC. All rights reserved. Privacy Policy  Contact